• Join FlightAware (Why Join?)
  • Login
  • US Flag 
01:02PM EDT


 

Airport Tracker/Info


-or-


 

Live Flight TrackerFlight Track Log ✈ NGF80W ✈ 02-Jul-2013 ✈ KBKL - KCWI

Flight Track Log - Related Links

Times and Time Zones

All times are in EDT time to prevent confusion due to time zone crossing. See the NGF80W flight status page for this flight to view local times or setup timezone preferences in your user account.

Time Position Orientation Groundspeed Altitude Reporting Facility
EDT Latitude Longitude Course Direction KTS MPH feet Rate Location/Type
10:38AM 41.5294 -81.6731 335° Northwest 114 131 1,100  Level Cleveland Center
10:39AM 41.5481 -81.6847 335° Northwest 122 140 2,000 1,140 Climbing Cleveland Center
10:40AM 41.5750 -81.7211 315° West 135 155 3,100 960 Climbing Cleveland Center
10:41AM 41.5892 -81.7686 292° West 136 157 4,000 840 Climbing Cleveland Center
10:42AM 41.6031 -81.8161 291° West 147 169 4,800 780 Climbing Cleveland Center
10:43AM 41.6089 -81.8689 278° West 145 167 5,600 600 Climbing Cleveland Center
10:44AM 41.6103 -81.9244 272° West 156 180 6,000 180 Climbing Cleveland Center
10:45AM 41.6117 -81.9883 272° West 182 209 6,000  Level Cleveland Center
10:46AM 41.6192 -82.0553 279° West 179 206 6,000  Level Cleveland Center
10:47AM 41.6244 -82.1192 276° West 175 201 6,000  Level Cleveland Center
10:48AM 41.6278 -82.1833 274° West 173 199 6,000  Level Cleveland Center
10:49AM 41.6311 -82.2500 274° West 169 194 6,000  Level Cleveland Center
10:50AM 41.6364 -82.3139 276° West 173 199 6,000  Level Cleveland Center
10:51AM 41.6375 -82.3781 271° West 176 203 6,000  Level Cleveland Center
10:52AM 41.6406 -82.4392 274° West 171 197 6,000  Level Cleveland Center
10:53AM 41.6436 -82.5086 273° West 171 197 6,000  Level Cleveland Center
10:54AM 41.6467 -82.5783 273° West 171 197 6,000  Level Cleveland Center
10:55AM 41.6497 -82.6394 274° West 171 197 6,000  Level Cleveland Center
10:57AM 41.6160 -82.7551 249° West  Level FlightAware Approximate
11:04AM 41.6451 -83.2457 275° West  Level Estimated
11:05AM 41.6457 -83.3160 271° West  Level FlightAware Approximate
11:06AM 41.6464 -83.3863 271° West  Level FlightAware Approximate
11:07AM 41.6470 -83.4566 271° West  Level FlightAware Approximate
11:08AM 41.6476 -83.5269 271° West  Level FlightAware Approximate
11:08AM 41.6981 -83.4519 270° West 193 222 6,000  Level Chicago Center
11:09AM 41.6481 -83.5972 271° West  Level FlightAware Approximate
11:09AM 41.7014 -83.5169 274° West 177 204 5,900  Level Chicago Center
11:10AM 41.6486 -83.6675 271° West  Level FlightAware Approximate
11:10AM 41.7086 -83.5942 277° West 175 201 5,900  Level Chicago Center
11:11AM 41.6491 -83.7378 271° West  Level FlightAware Approximate
11:11AM 41.7131 -83.6583 275° West 174 200 5,900  Level Chicago Center
11:12AM 41.6495 -83.8081 270° West  Level FlightAware Approximate
11:12AM 41.7161 -83.7228 274° West 174 200 5,900  Level Chicago Center
11:13AM 41.6498 -83.8784 270° West  Level FlightAware Approximate
11:13AM 41.7194 -83.7881 274° West 176 203 5,900  Level Chicago Center
11:14AM 41.7219 -83.8522 273° West 175 201 6,000  Climbing Chicago Center
11:15AM 41.7247 -83.9183 273° West 176 203 5,900 -60 Descending Chicago Center
11:16AM 41.7278 -83.9856 274° West 178 205 5,900  Level Chicago Center
11:17AM 41.7303 -84.0508 273° West 178 205 5,900  Level Chicago Center
11:18AM 41.7353 -84.1322 275° West 180 207 5,900  Level Chicago Center
11:19AM 41.7386 -84.2000 274° West 182 209 5,900  Level Chicago Center
11:20AM 41.7419 -84.2681 274° West 183 211 5,900  Level Chicago Center
11:21AM 41.7453 -84.3369 274° West 184 212 5,900  Level Chicago Center
11:22AM 41.7492 -84.4050 274° West 184 212 5,900  Level Chicago Center
11:23AM 41.7542 -84.4728 276° West 184 212 5,900  Level Chicago Center
11:24AM 41.7581 -84.5411 274° West 184 212 5,900  Level Chicago Center
11:25AM 41.7631 -84.6233 275° West 185 213 5,900  Level Chicago Center
11:26AM 41.7667 -84.6914 274° West 185 213 5,900  Level Chicago Center
11:27AM 41.7703 -84.7586 274° West 183 211 5,900  Level Chicago Center
11:28AM 41.7747 -84.8278 275° West 185 213 5,900  Level Chicago Center
11:29AM 41.7786 -84.8956 274° West 184 212 5,900  Level Chicago Center
11:30AM 41.7828 -84.9636 275° West 184 212 5,900  Level Chicago Center
11:31AM 41.7867 -85.0311 274° West 183 211 5,900  Level Chicago Center
11:32AM 41.7919 -85.1111 275° West 182 209 5,900  Level Chicago Center
11:33AM 41.7953 -85.1789 274° West 182 209 5,900  Level Chicago Center
11:34AM 41.7997 -85.2461 275° West 183 211 5,900  Level Chicago Center
11:35AM 41.8031 -85.3147 274° West 184 212 5,900  Level Chicago Center
11:36AM 41.8078 -85.3825 275° West 185 213 5,900  Level Chicago Center
11:37AM 41.8103 -85.4506 273° West 185 213 5,900  Level Chicago Center
11:38AM 41.7936 -85.5267 254° West 185 213 5,900  Level Chicago Center
11:39AM 41.7686 -85.5839 240° Southwest 181 208 5,900  Level Chicago Center
11:40AM 41.7428 -85.6394 238° Southwest 180 207 5,900  Level Chicago Center
11:41AM 41.7150 -85.6939 236° Southwest 179 206 5,900  Level Chicago Center
11:43AM 41.6853 -85.7450 232° Southwest 177 204 6,000  Climbing Chicago Center
11:44AM 41.6556 -85.8131 240° Southwest 177 204 5,900 -60 Descending Chicago Center
11:45AM 41.6300 -85.8681 238° Southwest 176 203 5,900  Level Chicago Center
11:46AM 41.6042 -85.9242 238° Southwest 176 203 5,900  Level Chicago Center
11:47AM 41.5800 -85.9800 240° Southwest 176 203 6,000  Climbing Chicago Center
11:48AM 41.5558 -86.0358 240° Southwest 175 201 6,000  Level Chicago Center
11:49AM 41.5311 -86.0917 239° Southwest 175 201 6,000  Level Chicago Center
11:50AM 41.5031 -86.1617 242° Southwest 178 205 6,000  Level Chicago Center
11:51AM 41.4786 -86.2186 240° Southwest 177 204 6,000  Level Chicago Center
11:52AM 41.4547 -86.2742 240° Southwest 175 201 6,000  Level Chicago Center
11:53AM 41.4303 -86.3314 240° Southwest 177 204 6,000  Level Chicago Center
11:54AM 41.4064 -86.3883 241° Southwest 177 204 6,000  Level Chicago Center
11:55AM 41.3825 -86.4464 241° Southwest 178 205 6,000  Level Chicago Center
11:56AM 41.3583 -86.5039 241° Southwest 179 206 6,000  Level Chicago Center
11:57AM 41.3272 -86.5736 239° Southwest 181 208 6,000  Level Chicago Center
11:58AM 41.3019 -86.6300 239° Southwest 180 207 6,000  Level Chicago Center
11:59AM 41.2786 -86.6892 242° Southwest 180 207 6,000  Level Chicago Center
12:00PM 41.2539 -86.7522 242° Southwest 181 208 6,000  Level Chicago Center
12:01PM 41.2306 -86.8106 242° Southwest 180 207 6,000  Level Chicago Center
12:02PM 41.2067 -86.8700 242° Southwest 182 209 6,000  Level Chicago Center
12:03PM 41.1836 -86.9306 243° Southwest 184 212 6,000  Level Chicago Center
12:04PM 41.1925 -87.0094 279° West 179 206 6,000  Level Chicago Center
12:05PM 41.1981 -87.0767 276° West 184 212 6,000  Level Chicago Center
12:06PM 41.2064 -87.1414 280° West 181 208 6,000  Level Chicago Center
12:07PM 41.2144 -87.2081 279° West 183 211 6,000  Level Chicago Center
12:08PM 41.2236 -87.2733 281° West 181 208 6,000  Level Chicago Center
12:09PM 41.2328 -87.3397 280° West 183 211 6,000  Level Chicago Center
12:10PM 41.2336 -87.4203 271° West 182 209 6,000  Level Chicago Center
12:11PM 41.2414 -87.4842 279° West 182 209 6,000  Level Chicago Center
12:12PM 41.2508 -87.5514 281° West 180 207 6,000  Level Chicago Center
12:13PM 41.2583 -87.6153 279° West 179 206 6,000  Level Chicago Center
12:14PM 41.2664 -87.6794 280° West 177 204 6,000  Level Chicago Center
12:16PM 41.2719 -87.7444 277° West 178 205 6,000  Level Chicago Center
12:17PM 41.2828 -87.8211 281° West 176 203 6,000  Level Chicago Center
12:18PM 41.2908 -87.8861 279° West 178 205 6,000  Level Chicago Center
12:19PM 41.2950 -87.9506 275° West 177 204 6,000  Level Chicago Center
12:20PM 41.3028 -88.0153 279° West 176 203 6,000  Level Chicago Center
12:21PM 41.3114 -88.0806 280° West 178 205 6,000  Level Chicago Center
12:22PM 41.3203 -88.1472 280° West 181 208 6,000  Level Chicago Center
12:23PM 41.3278 -88.2158 278° West 185 213 6,000  Level Chicago Center
12:24PM 41.3394 -88.2969 281° West 186 214 6,000  Level Chicago Center
12:25PM 41.3514 -88.3628 284° West 185 213 6,000  Level Chicago Center
12:26PM 41.3636 -88.4272 284° West 182 209 6,000  Level Chicago Center
12:27PM 41.3806 -88.4908 290° West 182 209 6,000  Level Chicago Center
12:28PM 41.3947 -88.5561 286° West 185 213 6,000  Level Chicago Center
12:29PM 41.4106 -88.6189 289° West 182 209 6,000  Level Chicago Center
12:30PM 41.4319 -88.6933 291° West 181 208 6,000  Level Chicago Center
12:31PM 41.4492 -88.7561 290° West 181 208 6,000  Level Chicago Center
12:32PM 41.4658 -88.8186 290° West 180 207 6,000  Level Chicago Center
12:33PM 41.4842 -88.8794 292° West 179 206 6,000  Level Chicago Center
12:34PM 41.4992 -88.9428 288° West 180 207 6,000  Level Chicago Center
12:35PM 41.5136 -89.0033 288° West 174 200 6,000  Level Chicago Center
12:36PM 41.5306 -89.0778 287° West 174 200 6,000  Level Chicago Center
12:37PM 41.5447 -89.1403 287° West 177 204 6,100  Climbing Chicago Center
12:38PM 41.5578 -89.2031 286° West 178 205 6,100  Level Chicago Center
12:39PM 41.5719 -89.2644 287° West 176 203 6,100  Level Chicago Center
12:40PM 41.5886 -89.3236 291° West 174 200 6,100  Level Chicago Center
12:41PM 41.6011 -89.3872 285° West 175 201 6,100 -60 Level Chicago Center
12:42PM 41.6197 -89.4592 289° West 174 200 6,000 -60 Descending Chicago Center
12:43PM 41.6381 -89.5194 292° West 175 201 6,000  Level Chicago Center
12:44PM 41.6528 -89.5811 288° West 175 201 6,000 -60 Level Chicago Center
12:45PM 41.6678 -89.6422 288° West 175 201 5,900 -60 Descending Chicago Center
12:46PM 41.6811 -89.7036 286° West 174 200 5,900 -240 Level Chicago Center
12:47PM 41.7028 -89.7794 291° West 178 205 5,500 -420 Descending Chicago Center
12:49PM 41.7200 -89.8444 290° West 184 212 5,100 -540 Descending Chicago Center
12:50PM 41.7347 -89.9078 287° West 182 209 4,500 -540 Descending Chicago Center
12:51PM 41.7503 -89.9722 288° West 182 209 4,100 -420 Descending Chicago Center
12:52PM 41.7639 -90.0344 286° West 179 206 3,700 -360 Descending Chicago Center
12:53PM 41.7783 -90.1047 285° West 177 204 3,400 -300 Descending Chicago Center
12:55PM 41.8052 -90.2180 288° West  Level FlightAware Approximate
01:02PM 41.8167 -90.3167 270° West  Level FlightAware Approximate
01:03PM 41.8307 -90.3290 270° West  Level Estimated
01:04PM 41.8307 -90.3290 270° West  Level Estimated